Time;durP1;ratioP1;P1;durP2;ratioP2;P2;SDS_P1;SDS_P2;PMS_P1;PMS_P2;Temp;Humidity;BMP_temperature;BMP_pressure;BME280_temperature;BME280_humidity;BME280_pressure;Samples;Min_cycle;Max_cycle;Signal;HPM_P1;HPM_P2
2022/12/02 00:00:15;;;;;;;52.10;23.97;;;;;;;;;;5095989;28;20441;-70
2022/12/02 00:02:43;;;;;;;59.40;24.93;;;;;;;;;;5096226;28;20427;-70
2022/12/02 00:05:18;;;;;;;51.70;26.67;;;;;;;;;;5095886;28;20529;-70
2022/12/02 00:07:45;;;;;;;55.47;27.37;;;;;;;;;;5096065;28;21045;-70
2022/12/02 00:10:22;;;;;;;51.00;24.53;;;;;;;;;;5096445;28;20481;-70
2022/12/02 00:12:50;;;;;;;59.10;25.60;;;;;;;;;;5095585;28;20485;-70
2022/12/02 00:18:11;;;;;;;51.03;23.57;;;;;;;;;;5131535;27;20949;-70
2022/12/02 00:20:38;;;;;;;57.63;25.80;;;;;;;;;;5110868;28;20442;-70
2022/12/02 00:23:05;;;;;;;57.00;24.13;;;;;;;;;;5111158;28;20446;-70
2022/12/02 00:25:33;;;;;;;50.03;23.70;;;;;;;;;;5110645;28;20464;-70
2022/12/02 00:28:00;;;;;;;44.23;23.47;;;;;;;;;;5111312;28;20840;-70
2022/12/02 00:30:28;;;;;;;44.70;23.47;;;;;;;;;;5110768;28;20454;-70
2022/12/02 00:32:55;;;;;;;52.30;24.30;;;;;;;;;;5111031;28;20445;-70
2022/12/02 00:35:24;;;;;;;50.47;21.50;;;;;;;;;;5110908;28;20481;-70
2022/12/02 00:37:51;;;;;;;68.57;28.17;;;;;;;;;;5110624;28;20497;-70
2022/12/02 00:40:19;;;;;;;52.17;24.50;;;;;;;;;;5110849;28;20801;-70
2022/12/02 00:42:46;;;;;;;53.93;22.00;;;;;;;;;;5110788;28;20935;-70
2022/12/02 00:47:58;;;;;;;47.97;22.77;;;;;;;;;;5110397;28;21020;-70
2022/12/02 00:50:27;;;;;;;52.17;23.70;;;;;;;;;;5111222;28;20430;-70
2022/12/02 00:52:54;;;;;;;59.40;22.57;;;;;;;;;;5110358;28;20457;-70
2022/12/02 00:55:21;;;;;;;57.40;24.20;;;;;;;;;;5110231;28;20454;-70
2022/12/02 00:57:48;;;;;;;63.13;26.50;;;;;;;;;;5110249;28;20572;-70
2022/12/02 01:00:16;;;;;;;50.03;23.90;;;;;;;;;;5110138;28;20457;-70
2022/12/02 01:02:43;;;;;;;57.97;24.90;;;;;;;;;;5110388;28;20441;-70
2022/12/02 01:05:10;;;;;;;55.47;23.60;;;;;;;;;;5110313;28;20442;-70
2022/12/02 01:07:39;;;;;;;47.10;23.63;;;;;;;;;;5110267;28;20462;-70
2022/12/02 01:10:06;;;;;;;52.93;25.00;;;;;;;;;;5110210;28;20450;-70
2022/12/02 01:12:33;;;;;;;54.97;25.83;;;;;;;;;;5110101;28;20548;-70
2022/12/02 01:15:01;;;;;;;58.17;27.23;;;;;;;;;;5109733;28;20446;-70
2022/12/02 01:17:28;;;;;;;56.50;23.17;;;;;;;;;;5109582;28;20844;-70
2022/12/02 01:19:55;;;;;;;64.97;26.30;;;;;;;;;;5109692;28;20437;-70
2022/12/02 01:22:22;;;;;;;52.77;23.67;;;;;;;;;;5109919;28;20452;-69
2022/12/02 01:24:50;;;;;;;51.40;24.43;;;;;;;;;;5108256;28;20450;-70
2022/12/02 01:27:17;;;;;;;58.63;24.60;;;;;;;;;;5108906;28;20466;-70
2022/12/02 01:29:45;;;;;;;55.23;26.00;;;;;;;;;;5095774;28;20457;-70
2022/12/02 01:32:12;;;;;;;43.83;21.97;;;;;;;;;;5095914;28;20459;-70
2022/12/02 01:34:40;;;;;;;53.77;25.17;;;;;;;;;;5096092;28;20457;-70
2022/12/02 01:37:07;;;;;;;58.73;25.97;;;;;;;;;;5096138;28;20491;-70
2022/12/02 01:39:34;;;;;;;59.00;24.10;;;;;;;;;;5096122;28;20811;-70
2022/12/02 01:42:03;;;;;;;49.93;21.60;;;;;;;;;;5095727;28;20451;-70
2022/12/02 01:44:30;;;;;;;53.03;25.43;;;;;;;;;;5095798;28;20468;-70
2022/12/02 01:46:57;;;;;;;46.63;22.07;;;;;;;;;;5095651;28;20466;-70
2022/12/02 01:49:24;;;;;;;44.43;20.57;;;;;;;;;;5095610;28;20928;-69
2022/12/02 01:51:52;;;;;;;51.50;23.20;;;;;;;;;;5095527;28;20461;-70
2022/12/02 01:54:19;;;;;;;40.30;21.50;;;;;;;;;;5095190;28;20453;-70
2022/12/02 01:56:46;;;;;;;53.10;24.00;;;;;;;;;;5095322;28;20497;-70
2022/12/02 01:59:15;;;;;;;51.60;23.90;;;;;;;;;;5095402;28;20447;-69
2022/12/02 02:01:43;;;;;;;52.33;22.80;;;;;;;;;;5095633;28;20451;-69
2022/12/02 02:04:10;;;;;;;49.53;22.53;;;;;;;;;;5095536;28;20471;-70
2022/12/02 02:06:39;;;;;;;62.17;25.07;;;;;;;;;;5095209;28;20477;-70
2022/12/02 02:09:07;;;;;;;55.57;26.03;;;;;;;;;;5095535;28;20924;-70
2022/12/02 02:11:34;;;;;;;46.77;23.70;;;;;;;;;;5095134;28;20451;-70
2022/12/02 02:14:01;;;;;;;50.00;24.00;;;;;;;;;;5094930;28;20457;-70
2022/12/02 02:16:30;;;;;;;44.60;20.07;;;;;;;;;;5094747;28;20479;-70
2022/12/02 02:18:57;;;;;;;56.63;25.27;;;;;;;;;;5095301;28;20932;-70
2022/12/02 02:21:27;;;;;;;48.03;24.77;;;;;;;;;;5094938;28;20462;-70
2022/12/02 02:23:55;;;;;;;37.57;20.83;;;;;;;;;;5094746;28;20457;-69
2022/12/02 02:26:23;;;;;;;54.97;23.43;;;;;;;;;;5093995;28;20450;-69
2022/12/02 02:28:50;;;;;;;44.37;22.40;;;;;;;;;;5095057;28;20434;-69
2022/12/02 02:31:17;;;;;;;51.67;24.80;;;;;;;;;;5094725;28;20449;-69
2022/12/02 02:33:44;;;;;;;51.23;22.40;;;;;;;;;;5094755;28;20812;-70
2022/12/02 02:36:11;;;;;;;50.10;25.20;;;;;;;;;;5094486;28;20450;-70
2022/12/02 02:38:39;;;;;;;52.73;25.00;;;;;;;;;;5094871;28;20550;-69
2022/12/02 02:41:08;;;;;;;53.70;24.37;;;;;;;;;;5093878;28;20453;-70
2022/12/02 02:43:36;;;;;;;47.93;23.50;;;;;;;;;;5094624;28;20442;-70
2022/12/02 02:46:04;;;;;;;55.77;24.20;;;;;;;;;;5094698;28;20496;-70
2022/12/02 02:48:32;;;;;;;57.73;25.13;;;;;;;;;;5094625;28;21045;-70
2022/12/02 02:50:59;;;;;;;54.37;23.37;;;;;;;;;;5094786;28;20443;-70
2022/12/02 02:53:27;;;;;;;58.10;23.93;;;;;;;;;;5094305;28;20461;-70
2022/12/02 02:55:54;;;;;;;55.57;24.83;;;;;;;;;;5094696;28;20453;-69
2022/12/02 02:58:24;;;;;;;46.83;25.20;;;;;;;;;;5094118;28;20490;-69
2022/12/02 03:00:53;;;;;;;47.13;23.43;;;;;;;;;;5094523;28;20446;-69
2022/12/02 03:03:21;;;;;;;57.80;24.40;;;;;;;;;;5094424;28;20922;-70
2022/12/02 03:05:49;;;;;;;48.43;23.23;;;;;;;;;;5094286;28;20446;-69
2022/12/02 03:08:16;;;;;;;51.60;22.37;;;;;;;;;;5093917;28;20462;-70
2022/12/02 03:10:44;;;;;;;46.57;22.63;;;;;;;;;;5094256;28;20451;-69
2022/12/02 03:13:11;;;;;;;54.17;25.63;;;;;;;;;;5093886;28;20459;-69
2022/12/02 03:15:40;;;;;;;53.90;23.17;;;;;;;;;;5093921;28;20447;-70
2022/12/02 03:18:07;;;;;;;55.77;23.43;;;;;;;;;;5094023;28;20500;-69
2022/12/02 03:20:34;;;;;;;48.97;24.57;;;;;;;;;;5094152;28;20545;-69
2022/12/02 03:23:01;;;;;;;47.40;22.40;;;;;;;;;;5094100;28;20940;-70
2022/12/02 03:25:29;;;;;;;49.90;21.63;;;;;;;;;;5093379;28;20812;-70
2022/12/02 03:27:56;;;;;;;51.53;22.20;;;;;;;;;;5093594;28;20467;-70
2022/12/02 03:30:23;;;;;;;47.60;23.17;;;;;;;;;;5093696;28;20435;-70
2022/12/02 03:32:52;;;;;;;54.50;23.40;;;;;;;;;;5094086;28;20453;-70
2022/12/02 03:35:20;;;;;;;52.50;24.97;;;;;;;;;;5093900;28;20450;-70
2022/12/02 03:37:47;;;;;;;47.13;21.50;;;;;;;;;;5093785;28;20502;-70
2022/12/02 03:40:14;;;;;;;54.30;22.83;;;;;;;;;;5093835;28;20451;-70
2022/12/02 03:42:41;;;;;;;65.07;25.17;;;;;;;;;;5093744;28;20814;-69
2022/12/02 03:45:10;;;;;;;48.80;23.57;;;;;;;;;;5093414;28;20458;-70
2022/12/02 03:47:37;;;;;;;52.57;23.07;;;;;;;;;;5093699;28;20868;-69
2022/12/02 03:50:07;;;;;;;46.03;24.60;;;;;;;;;;5093503;28;20435;-69
2022/12/02 03:52:34;;;;;;;46.57;22.83;;;;;;;;;;5093488;28;21028;-70
2022/12/02 03:55:01;;;;;;;64.30;24.90;;;;;;;;;;5092912;28;20456;-69
2022/12/02 03:57:28;;;;;;;47.97;23.40;;;;;;;;;;5093527;28;20490;-69
2022/12/02 03:59:56;;;;;;;46.63;21.27;;;;;;;;;;5093280;28;20450;-69
2022/12/02 04:02:23;;;;;;;53.07;23.43;;;;;;;;;;5093155;28;20459;-69
2022/12/02 04:04:50;;;;;;;58.37;22.80;;;;;;;;;;5093119;28;20450;-70
2022/12/02 04:07:19;;;;;;;54.53;24.87;;;;;;;;;;5093317;28;20462;-70
2022/12/02 04:09:46;;;;;;;62.53;26.00;;;;;;;;;;5093335;28;20792;-70
2022/12/02 04:12:13;;;;;;;63.37;22.13;;;;;;;;;;5093070;28;20450;-70
2022/12/02 04:14:40;;;;;;;47.80;22.37;;;;;;;;;;5093085;28;20450;-70
2022/12/02 04:17:07;;;;;;;52.97;23.23;;;;;;;;;;5092834;28;20494;-69
2022/12/02 04:19:35;;;;;;;62.93;27.40;;;;;;;;;;5093313;28;20447;-69
2022/12/02 04:22:02;;;;;;;53.50;24.33;;;;;;;;;;5092877;28;20827;-69
2022/12/02 04:24:30;;;;;;;56.60;25.90;;;;;;;;;;5091526;28;20931;-70
2022/12/02 04:26:57;;;;;;;64.30;27.47;;;;;;;;;;5093191;28;20980;-70
2022/12/02 04:29:25;;;;;;;55.53;23.47;;;;;;;;;;5093061;28;20445;-70
2022/12/02 04:31:52;;;;;;;60.63;25.20;;;;;;;;;;5093198;28;20461;-70
2022/12/02 04:34:19;;;;;;;64.87;26.80;;;;;;;;;;5092601;28;20455;-69
2022/12/02 04:36:46;;;;;;;58.07;24.30;;;;;;;;;;5092716;28;20470;-69
2022/12/02 04:39:13;;;;;;;63.60;25.33;;;;;;;;;;5092905;28;20529;-70
2022/12/02 04:41:42;;;;;;;53.30;25.00;;;;;;;;;;5092792;28;20447;-70
2022/12/02 04:44:09;;;;;;;64.20;27.50;;;;;;;;;;5092743;28;20453;-70
2022/12/02 04:46:36;;;;;;;67.30;28.83;;;;;;;;;;5093081;28;20502;-70
2022/12/02 04:49:03;;;;;;;48.00;23.23;;;;;;;;;;5092842;28;20465;-70
2022/12/02 04:51:31;;;;;;;60.63;26.60;;;;;;;;;;5092614;28;20490;-70
2022/12/02 04:53:59;;;;;;;51.17;23.70;;;;;;;;;;5092915;28;20979;-70
2022/12/02 04:56:26;;;;;;;59.23;23.30;;;;;;;;;;5092925;28;20443;-69
2022/12/02 04:58:54;;;;;;;48.10;23.30;;;;;;;;;;5092865;28;20830;-69
2022/12/02 05:01:21;;;;;;;50.40;24.07;;;;;;;;;;5092994;28;20810;-69
2022/12/02 05:03:48;;;;;;;64.20;27.30;;;;;;;;;;5094474;28;20438;-70
2022/12/02 05:06:16;;;;;;;54.70;24.50;;;;;;;;;;5096706;28;20450;-70
2022/12/02 05:08:43;;;;;;;56.90;24.40;;;;;;;;;;5096754;28;20998;-70
2022/12/02 05:11:10;;;;;;;62.20;24.80;;;;;;;;;;5096598;28;20504;-70
2022/12/02 05:13:37;;;;;;;56.43;23.43;;;;;;;;;;5096188;28;20455;-70
2022/12/02 05:16:06;;;;;;;54.63;22.50;;;;;;;;;;5096117;28;20523;-70
2022/12/02 05:18:33;;;;;;;56.67;23.77;;;;;;;;;;5096223;28;20470;-70
2022/12/02 05:21:00;;;;;;;52.77;24.67;;;;;;;;;;5095906;28;20450;-69
2022/12/02 05:23:27;;;;;;;58.67;26.77;;;;;;;;;;5096215;28;20978;-70
2022/12/02 05:25:54;;;;;;;59.60;22.47;;;;;;;;;;5095774;28;20447;-70
2022/12/02 05:28:22;;;;;;;66.20;28.27;;;;;;;;;;5096274;28;20813;-70
2022/12/02 05:30:49;;;;;;;70.27;28.07;;;;;;;;;;5095905;28;20447;-70
2022/12/02 05:33:17;;;;;;;54.77;28.03;;;;;;;;;;5096279;28;20442;-69
2022/12/02 05:35:44;;;;;;;84.70;26.07;;;;;;;;;;5096161;28;20790;-69
2022/12/02 05:38:11;;;;;;;58.97;28.60;;;;;;;;;;5095705;28;20516;-69
2022/12/02 05:40:39;;;;;;;61.23;25.83;;;;;;;;;;5095970;28;20435;-70
2022/12/02 05:43:14;;;;;;;59.83;25.57;;;;;;;;;;5096079;28;20944;-70
2022/12/02 05:45:41;;;;;;;57.63;27.93;;;;;;;;;;5095555;28;20908;-70
2022/12/02 05:48:11;;;;;;;65.03;25.43;;;;;;;;;;5095600;28;20477;-70
2022/12/02 05:50:40;;;;;;;74.93;32.27;;;;;;;;;;5095808;28;20940;-70
2022/12/02 05:53:07;;;;;;;58.03;25.80;;;;;;;;;;5095788;28;20447;-70
2022/12/02 05:55:35;;;;;;;72.63;30.30;;;;;;;;;;5095672;28;20446;-70
2022/12/02 05:58:03;;;;;;;61.37;28.20;;;;;;;;;;5095847;28;20490;-70
2022/12/02 06:00:30;;;;;;;74.97;30.33;;;;;;;;;;5095453;28;20431;-69
2022/12/02 06:02:59;;;;;;;61.23;28.97;;;;;;;;;;5095424;28;20461;-69
2022/12/02 06:05:27;;;;;;;73.47;28.07;;;;;;;;;;5095453;28;20451;-69
2022/12/02 06:07:57;;;;;;;76.00;29.37;;;;;;;;;;5094998;28;20463;-69
2022/12/02 06:10:29;;;;;;;78.87;33.30;;;;;;;;;;5095479;28;20451;-69
2022/12/02 06:12:58;;;;;;;89.13;33.00;;;;;;;;;;5095235;28;20437;-69
2022/12/02 06:15:25;;;;;;;85.77;29.37;;;;;;;;;;5095124;28;20962;-69
2022/12/02 06:17:53;;;;;;;89.00;32.30;;;;;;;;;;5094944;28;20537;-69
2022/12/02 06:20:24;;;;;;;75.63;28.70;;;;;;;;;;5095383;28;20912;-70
2022/12/02 06:22:52;;;;;;;70.63;29.37;;;;;;;;;;5095023;28;20451;-69
2022/12/02 06:25:30;;;;;;;81.70;29.70;;;;;;;;;;5093779;28;20462;-69
2022/12/02 06:27:57;;;;;;;78.60;30.80;;;;;;;;;;5095095;28;21017;-69
2022/12/02 06:30:24;;;;;;;80.93;32.50;;;;;;;;;;5094158;28;20457;-69
2022/12/02 06:32:54;;;;;;;88.77;32.13;;;;;;;;;;5094447;28;20455;-69
2022/12/02 06:35:23;;;;;;;87.27;31.30;;;;;;;;;;5094938;28;20431;-69
2022/12/02 06:37:51;;;;;;;68.53;28.43;;;;;;;;;;5094566;28;20544;-69
2022/12/02 06:40:22;;;;;;;87.33;33.80;;;;;;;;;;5094934;28;21081;-68
2022/12/02 06:42:51;;;;;;;84.83;32.27;;;;;;;;;;5095060;28;20969;-68
2022/12/02 06:45:22;;;;;;;78.20;31.60;;;;;;;;;;5094599;28;20442;-69
2022/12/02 06:47:50;;;;;;;71.30;26.87;;;;;;;;;;5094265;28;20466;-69
2022/12/02 06:50:28;;;;;;;64.13;27.93;;;;;;;;;;5094657;28;20452;-70
2022/12/02 06:52:57;;;;;;;73.47;27.37;;;;;;;;;;5094363;28;20454;-69
2022/12/02 06:55:27;;;;;;;63.10;26.30;;;;;;;;;;5094003;28;20449;-69
2022/12/02 06:57:57;;;;;;;63.47;28.40;;;;;;;;;;5094333;28;20842;-69
2022/12/02 07:00:24;;;;;;;72.87;28.47;;;;;;;;;;5094384;28;20447;-69
2022/12/02 07:02:51;;;;;;;67.20;26.27;;;;;;;;;;5094468;28;20473;-69
2022/12/02 07:05:19;;;;;;;67.20;24.90;;;;;;;;;;5093968;28;20454;-69
2022/12/02 07:07:46;;;;;;;63.70;27.50;;;;;;;;;;5094169;28;20994;-69
2022/12/02 07:10:18;;;;;;;57.90;24.93;;;;;;;;;;5094211;28;20467;-69
2022/12/02 07:12:45;;;;;;;53.00;25.10;;;;;;;;;;5093840;28;20454;-69
2022/12/02 07:15:23;;;;;;;59.53;25.27;;;;;;;;;;5093918;28;20455;-69
2022/12/02 07:17:50;;;;;;;65.43;25.27;;;;;;;;;;5093645;28;21025;-69
2022/12/02 07:20:25;;;;;;;64.17;25.87;;;;;;;;;;5093880;28;20541;-69
2022/12/02 07:22:55;;;;;;;56.37;24.20;;;;;;;;;;5095381;28;20457;-69
2022/12/02 07:25:28;;;;;;;61.67;23.40;;;;;;;;;;5090160;28;20443;-69
2022/12/02 07:27:56;;;;;;;60.77;25.03;;;;;;;;;;5092577;28;20467;-69
2022/12/02 07:30:26;;;;;;;89.27;27.43;;;;;;;;;;5093429;28;20439;-69
2022/12/02 07:32:54;;;;;;;60.90;24.47;;;;;;;;;;5093393;28;20435;-69
2022/12/02 07:35:21;;;;;;;71.23;27.93;;;;;;;;;;5093922;28;21011;-69
2022/12/02 07:37:48;;;;;;;65.50;28.00;;;;;;;;;;5092261;28;20477;-69
2022/12/02 07:40:16;;;;;;;51.73;23.87;;;;;;;;;;5093772;28;20494;-69
2022/12/02 07:42:43;;;;;;;69.07;27.57;;;;;;;;;;5093567;28;20458;-69
2022/12/02 07:45:11;;;;;;;61.73;28.20;;;;;;;;;;5093782;28;20814;-69
2022/12/02 07:47:40;;;;;;;70.20;28.47;;;;;;;;;;5093833;28;20471;-70
2022/12/02 07:50:07;;;;;;;78.20;29.07;;;;;;;;;;5093534;28;20448;-69
2022/12/02 07:52:34;;;;;;;66.33;28.57;;;;;;;;;;5093345;28;21027;-69
2022/12/02 07:55:02;;;;;;;71.93;29.60;;;;;;;;;;5093364;28;20463;-69
2022/12/02 07:57:29;;;;;;;63.00;27.00;;;;;;;;;;5112983;28;20476;-69
2022/12/02 07:59:56;;;;;;;60.33;22.97;;;;;;;;;;5113590;28;20485;-69
2022/12/02 08:02:24;;;;;;;69.70;27.90;;;;;;;;;;5112890;28;21029;-69
2022/12/02 08:04:52;;;;;;;76.63;30.10;;;;;;;;;;5112446;28;20475;-69
2022/12/02 08:07:19;;;;;;;79.10;30.83;;;;;;;;;;5112402;28;20480;-69
2022/12/02 08:09:47;;;;;;;74.93;31.43;;;;;;;;;;5112623;28;20441;-69
2022/12/02 08:12:14;;;;;;;82.67;27.57;;;;;;;;;;5112689;28;20880;-69
2022/12/02 08:14:41;;;;;;;67.13;28.70;;;;;;;;;;5112515;28;20935;-69
2022/12/02 08:17:08;;;;;;;91.73;29.10;;;;;;;;;;5112038;28;20858;-70
2022/12/02 08:19:35;;;;;;;72.53;29.17;;;;;;;;;;5112216;28;20547;-69
2022/12/02 08:22:04;;;;;;;86.00;29.70;;;;;;;;;;5112466;28;20961;-69
2022/12/02 08:24:31;;;;;;;78.60;31.03;;;;;;;;;;5112078;28;20817;-69
2022/12/02 08:26:58;;;;;;;82.53;28.40;;;;;;;;;;5112356;28;20477;-69
2022/12/02 08:29:26;;;;;;;77.53;30.17;;;;;;;;;;5112413;28;20899;-69
2022/12/02 08:31:53;;;;;;;79.70;29.40;;;;;;;;;;5112370;28;20463;-69
2022/12/02 08:34:20;;;;;;;72.97;29.90;;;;;;;;;;5112319;28;20938;-69
2022/12/02 08:36:47;;;;;;;85.40;27.60;;;;;;;;;;5101365;28;20478;-69
2022/12/02 08:39:15;;;;;;;81.37;29.07;;;;;;;;;;5082320;28;20499;-69
2022/12/02 08:41:42;;;;;;;83.73;30.17;;;;;;;;;;5075723;28;20957;-69
2022/12/02 08:44:10;;;;;;;72.70;27.43;;;;;;;;;;5075508;28;20451;-69
2022/12/02 08:46:37;;;;;;;85.30;31.93;;;;;;;;;;5075281;28;20471;-69
2022/12/02 08:49:05;;;;;;;65.87;28.60;;;;;;;;;;5075943;28;20454;-69
2022/12/02 08:51:32;;;;;;;71.37;29.80;;;;;;;;;;5075520;28;20956;-69
2022/12/02 08:53:59;;;;;;;80.97;30.53;;;;;;;;;;5075450;28;20956;-69
2022/12/02 08:56:28;;;;;;;65.03;25.73;;;;;;;;;;5075165;28;20454;-69
2022/12/02 08:58:55;;;;;;;75.77;28.87;;;;;;;;;;5075382;28;20840;-69
2022/12/02 09:01:22;;;;;;;65.00;28.40;;;;;;;;;;5075323;28;20933;-69
2022/12/02 09:03:49;;;;;;;77.23;29.90;;;;;;;;;;5075407;28;20483;-69
2022/12/02 09:06:16;;;;;;;71.13;28.30;;;;;;;;;;5075083;28;20933;-69
2022/12/02 09:08:44;;;;;;;80.47;29.60;;;;;;;;;;5075128;28;20443;-69
2022/12/02 09:11:11;;;;;;;71.43;32.40;;;;;;;;;;5075060;28;20459;-69
2022/12/02 09:13:39;;;;;;;68.83;27.00;;;;;;;;;;5075426;28;20905;-69
2022/12/02 09:16:07;;;;;;;72.70;27.20;;;;;;;;;;5074820;28;20459;-69
2022/12/02 09:18:34;;;;;;;52.10;22.00;;;;;;;;;;5074749;28;20448;-69
2022/12/02 09:21:01;;;;;;;88.10;32.47;;;;;;;;;;5074643;28;20458;-69
2022/12/02 09:23:29;;;;;;;81.43;29.10;;;;;;;;;;5074904;28;20448;-69
2022/12/02 09:25:56;;;;;;;75.23;27.20;;;;;;;;;;5074978;28;20949;-69
2022/12/02 09:28:24;;;;;;;62.40;26.10;;;;;;;;;;5074930;28;20839;-69
2022/12/02 09:30:52;;;;;;;66.67;27.73;;;;;;;;;;5074877;28;20516;-69
2022/12/02 09:33:19;;;;;;;68.93;28.67;;;;;;;;;;5074749;28;20828;-69
2022/12/02 09:35:46;;;;;;;75.83;30.43;;;;;;;;;;5074694;28;20462;-69
2022/12/02 09:38:14;;;;;;;66.43;27.80;;;;;;;;;;5074858;28;21021;-69
2022/12/02 09:40:41;;;;;;;55.97;26.10;;;;;;;;;;5074653;28;20492;-69
2022/12/02 09:43:08;;;;;;;76.77;31.70;;;;;;;;;;5074136;28;20463;-69
2022/12/02 09:45:35;;;;;;;59.03;25.87;;;;;;;;;;5074652;28;20454;-69
2022/12/02 09:48:04;;;;;;;58.13;25.80;;;;;;;;;;5074468;28;20463;-68
2022/12/02 09:50:31;;;;;;;69.33;29.33;;;;;;;;;;5073687;28;20439;-68
2022/12/02 09:53:03;;;;;;;64.27;25.33;;;;;;;;;;5074471;28;20456;-68
2022/12/02 09:55:30;;;;;;;54.00;24.47;;;;;;;;;;5074068;28;20439;-68
2022/12/02 09:57:58;;;;;;;64.77;26.37;;;;;;;;;;5074344;28;20474;-68
2022/12/02 10:00:25;;;;;;;62.60;26.70;;;;;;;;;;5074238;28;20483;-69
2022/12/02 10:02:53;;;;;;;58.53;25.70;;;;;;;;;;5074288;28;20455;-69
2022/12/02 10:05:22;;;;;;;64.70;28.27;;;;;;;;;;5073886;28;20448;-69
2022/12/02 10:07:50;;;;;;;78.33;24.10;;;;;;;;;;5073815;28;20478;-69
2022/12/02 10:10:19;;;;;;;64.13;23.50;;;;;;;;;;5073822;28;20451;-69
2022/12/02 10:12:46;;;;;;;61.73;22.90;;;;;;;;;;5074111;28;20459;-69
2022/12/02 10:15:15;;;;;;;56.40;24.60;;;;;;;;;;5074149;28;20448;-69
2022/12/02 10:17:43;;;;;;;60.93;26.73;;;;;;;;;;5073648;28;21001;-69
2022/12/02 10:20:15;;;;;;;59.57;26.83;;;;;;;;;;5073876;28;20474;-69
2022/12/02 10:22:57;;;;;;;56.47;25.13;;;;;;;;;;5073529;28;20440;-69
2022/12/02 10:25:31;;;;;;;56.27;25.90;;;;;;;;;;5073253;28;20451;-69
2022/12/02 10:27:58;;;;;;;60.20;25.40;;;;;;;;;;5073237;28;20471;-68
2022/12/02 10:30:26;;;;;;;57.70;24.93;;;;;;;;;;5073554;28;20431;-69
2022/12/02 10:32:59;;;;;;;49.47;21.87;;;;;;;;;;5073771;28;20455;-68
2022/12/02 10:35:26;;;;;;;65.10;25.40;;;;;;;;;;5073317;28;20720;-69
2022/12/02 10:37:53;;;;;;;57.40;23.13;;;;;;;;;;5073475;28;20980;-68
2022/12/02 10:40:21;;;;;;;55.63;23.67;;;;;;;;;;5073261;28;20487;-69
2022/12/02 10:43:07;;;;;;;54.87;25.37;;;;;;;;;;5073408;28;20810;-68
2022/12/02 10:45:34;;;;;;;57.53;21.80;;;;;;;;;;5073372;28;20844;-69
2022/12/02 10:48:11;;;;;;;48.50;19.50;;;;;;;;;;5072943;28;20475;-68
2022/12/02 10:50:38;;;;;;;67.30;24.83;;;;;;;;;;5072999;28;20439;-69
2022/12/02 10:53:07;;;;;;;46.30;23.37;;;;;;;;;;5072993;28;20459;-69
2022/12/02 10:55:34;;;;;;;44.17;20.87;;;;;;;;;;5073385;28;20937;-68
2022/12/02 10:58:03;;;;;;;66.73;34.80;;;;;;;;;;5072985;28;20480;-69
2022/12/02 11:00:30;;;;;;;45.03;21.27;;;;;;;;;;5072389;28;20480;-68
2022/12/02 11:02:58;;;;;;;49.27;23.97;;;;;;;;;;5072708;28;20447;-69
2022/12/02 11:05:28;;;;;;;43.20;21.50;;;;;;;;;;5073056;28;20452;-69
2022/12/02 11:07:56;;;;;;;49.57;21.67;;;;;;;;;;5073144;28;20472;-68
2022/12/02 11:10:24;;;;;;;44.53;23.57;;;;;;;;;;5073970;28;20438;-68
2022/12/02 11:13:00;;;;;;;54.33;23.67;;;;;;;;;;5073843;28;20959;-69
2022/12/02 11:15:36;;;;;;;43.17;23.40;;;;;;;;;;5073983;28;20818;-69
2022/12/02 11:18:03;;;;;;;56.63;28.90;;;;;;;;;;5073598;28;20487;-69
2022/12/02 11:20:32;;;;;;;52.97;21.83;;;;;;;;;;5073957;28;20483;-69
2022/12/02 11:23:26;;;;;;;44.57;22.93;;;;;;;;;;5073802;28;20481;-69
2022/12/02 11:26:00;;;;;;;46.70;21.93;;;;;;;;;;5073061;28;20515;-69
2022/12/02 11:28:48;;;;;;;45.13;21.13;;;;;;;;;;5074293;28;20968;-69
2022/12/02 11:31:18;;;;;;;52.03;24.03;;;;;;;;;;5073515;28;20434;-69
2022/12/02 11:34:01;;;;;;;40.80;21.93;;;;;;;;;;5073487;28;20452;-69
2022/12/02 11:36:29;;;;;;;44.00;20.93;;;;;;;;;;5064992;28;20509;-69
2022/12/02 11:39:01;;;;;;;52.60;24.50;;;;;;;;;;5073524;28;20451;-69
2022/12/02 11:41:28;;;;;;;39.07;20.83;;;;;;;;;;5073667;28;20463;-68
2022/12/02 11:44:10;;;;;;;44.47;23.50;;;;;;;;;;5073354;28;20463;-69
2022/12/02 11:46:47;;;;;;;41.63;21.07;;;;;;;;;;5071668;28;20856;-68
2022/12/02 11:49:22;;;;;;;48.03;22.17;;;;;;;;;;5073511;28;20920;-69
2022/12/02 11:51:49;;;;;;;45.20;20.50;;;;;;;;;;5073028;28;20443;-69
2022/12/02 11:54:18;;;;;;;44.70;23.00;;;;;;;;;;5073123;28;20941;-69
2022/12/02 11:56:46;;;;;;;57.97;28.23;;;;;;;;;;5073179;28;20486;-69
2022/12/02 11:59:19;;;;;;;52.87;23.43;;;;;;;;;;5073273;28;20611;-69
2022/12/02 12:01:47;;;;;;;46.63;22.70;;;;;;;;;;5091267;28;20438;-70
2022/12/02 12:04:24;;;;;;;43.27;23.70;;;;;;;;;;5091923;28;20434;-69
2022/12/02 12:06:55;;;;;;;60.23;25.83;;;;;;;;;;5091766;28;20476;-69
2022/12/02 12:09:22;;;;;;;63.63;24.63;;;;;;;;;;5092438;28;20481;-69
2022/12/02 12:12:04;;;;;;;58.47;24.27;;;;;;;;;;5091492;28;20457;-69
2022/12/02 12:14:32;;;;;;;55.77;24.40;;;;;;;;;;5091918;28;20435;-69
2022/12/02 12:17:14;;;;;;;51.20;23.43;;;;;;;;;;5091725;28;20477;-69
2022/12/02 12:19:42;;;;;;;49.30;22.93;;;;;;;;;;5091981;28;20475;-69
2022/12/02 12:22:24;;;;;;;78.10;34.10;;;;;;;;;;5091642;28;20458;-69
2022/12/02 12:24:52;;;;;;;66.27;30.40;;;;;;;;;;5090788;28;20434;-69
2022/12/02 12:27:36;;;;;;;55.33;25.07;;;;;;;;;;5091934;28;20515;-69
2022/12/02 12:30:04;;;;;;;53.03;23.77;;;;;;;;;;5091980;28;20830;-69
2022/12/02 12:32:32;;;;;;;50.43;23.10;;;;;;;;;;5091755;28;20465;-69
2022/12/02 12:35:00;;;;;;;49.90;23.80;;;;;;;;;;5091579;28;20451;-69
2022/12/02 12:37:27;;;;;;;55.23;25.40;;;;;;;;;;5091709;28;20472;-69
2022/12/02 12:39:55;;;;;;;49.30;22.80;;;;;;;;;;5091959;28;20482;-69
2022/12/02 12:42:22;;;;;;;48.63;22.37;;;;;;;;;;5092078;28;20439;-69
2022/12/02 12:44:51;;;;;;;44.87;22.90;;;;;;;;;;5091722;28;20454;-69
2022/12/02 12:47:18;;;;;;;63.10;29.57;;;;;;;;;;5091881;28;20967;-69
2022/12/02 12:49:45;;;;;;;105.20;46.87;;;;;;;;;;5092603;28;20458;-69
2022/12/02 12:52:13;;;;;;;53.60;25.47;;;;;;;;;;5093364;28;20453;-69
2022/12/02 12:54:41;;;;;;;53.70;23.27;;;;;;;;;;5093118;28;20453;-69
2022/12/02 12:57:08;;;;;;;40.67;18.50;;;;;;;;;;5093139;28;20924;-69
2022/12/02 12:59:35;;;;;;;60.70;23.57;;;;;;;;;;5092929;28;20439;-69
2022/12/02 13:02:02;;;;;;;56.80;24.97;;;;;;;;;;5093036;28;20455;-69
2022/12/02 13:04:29;;;;;;;42.13;21.27;;;;;;;;;;5093119;28;20443;-68
2022/12/02 13:06:56;;;;;;;60.83;31.13;;;;;;;;;;5092886;28;20471;-68
2022/12/02 13:09:25;;;;;;;47.37;22.87;;;;;;;;;;5093177;28;20441;-68
2022/12/02 13:11:52;;;;;;;51.70;24.73;;;;;;;;;;5092800;28;20451;-68
2022/12/02 13:14:19;;;;;;;49.63;22.63;;;;;;;;;;5092948;28;20458;-68
2022/12/02 13:16:46;;;;;;;44.63;20.67;;;;;;;;;;5092642;28;20482;-69
2022/12/02 13:19:13;;;;;;;52.33;23.90;;;;;;;;;;5092602;28;20446;-68
2022/12/02 13:21:40;;;;;;;49.90;23.33;;;;;;;;;;5092710;28;20482;-68
2022/12/02 13:24:09;;;;;;;41.23;19.27;;;;;;;;;;5093578;28;20446;-68
2022/12/02 13:26:38;;;;;;;45.30;23.50;;;;;;;;;;5096395;28;20484;-68
2022/12/02 13:29:05;;;;;;;58.13;24.73;;;;;;;;;;5096517;28;20450;-69
2022/12/02 13:31:32;;;;;;;48.47;22.73;;;;;;;;;;5096473;28;20932;-69
2022/12/02 13:33:59;;;;;;;55.57;22.70;;;;;;;;;;5096058;28;20446;-69
2022/12/02 13:36:26;;;;;;;45.27;22.20;;;;;;;;;;5096374;28;20447;-69
2022/12/02 13:38:53;;;;;;;55.37;21.83;;;;;;;;;;5096395;28;20450;-69
2022/12/02 13:41:21;;;;;;;45.17;21.83;;;;;;;;;;5096310;28;20933;-69
2022/12/02 13:43:49;;;;;;;40.73;17.73;;;;;;;;;;5096103;28;20438;-68
2022/12/02 13:46:16;;;;;;;50.17;23.40;;;;;;;;;;5096015;28;20443;-69
2022/12/02 13:48:43;;;;;;;50.73;19.80;;;;;;;;;;5095976;28;20453;-68
2022/12/02 13:51:11;;;;;;;50.53;25.10;;;;;;;;;;5096025;28;20936;-68
2022/12/02 13:53:38;;;;;;;46.73;24.90;;;;;;;;;;5095618;28;20465;-68
2022/12/02 13:56:06;;;;;;;130.13;54.73;;;;;;;;;;5095979;28;20940;-69
2022/12/02 13:58:33;;;;;;;49.47;23.90;;;;;;;;;;5095964;28;20473;-69
2022/12/02 14:01:01;;;;;;;54.37;23.90;;;;;;;;;;5095885;28;20852;-69
2022/12/02 14:03:29;;;;;;;43.60;20.83;;;;;;;;;;5095912;28;20793;-68
2022/12/02 14:05:56;;;;;;;48.57;21.97;;;;;;;;;;5096361;28;21000;-68
2022/12/02 14:08:23;;;;;;;51.47;24.47;;;;;;;;;;5095757;28;20814;-68
2022/12/02 14:10:50;;;;;;;50.63;21.23;;;;;;;;;;5095736;28;20879;-68
2022/12/02 14:13:18;;;;;;;47.23;21.43;;;;;;;;;;5095574;28;20451;-68
2022/12/02 14:15:45;;;;;;;49.47;23.27;;;;;;;;;;5095196;28;20515;-68
2022/12/02 14:18:13;;;;;;;70.67;35.30;;;;;;;;;;5095223;28;20473;-68
2022/12/02 14:20:41;;;;;;;58.10;27.43;;;;;;;;;;5095185;28;20492;-69
2022/12/02 14:23:10;;;;;;;37.13;18.20;;;;;;;;;;5095724;28;20427;-69
2022/12/02 14:25:38;;;;;;;61.03;23.53;;;;;;;;;;5095679;28;20818;-69
2022/12/02 14:28:05;;;;;;;52.83;23.73;;;;;;;;;;5095511;28;20530;-69